Terminal Aerodrome Forecast
Issued by NWS Missoula, MT

Home | Current Version | Previous Version | Text Only | Print | Product List | Glossary On
Versions: 1 2 3 4 5 6 7 8 9 10 11 12 13
000
FTUS45 KMSO 292300
TAFBTM
TAF
KBTM 292332Z 3000/3024 09009KT P6SM VCTS BKN090CB BKN200
     FM300100 09009KT P6SM VCSH BKN120 BKN200
     FM300400 15005KT P6SM SCT100 BKN200=

USA.gov is the U.S. government's official web portal to all federal, state and local government web resources and services.